Aviation Digital Data Service (ADDS)

Output produced by METARs form (1112 UTC 24 April 2017)
found at http://www.aviationweather.gov/adds/metars/
 
DIBK 241000Z 12008KT 9999 BKN012 27/24 Q1015 BECMG RERA
TAF DIBK 241100Z 2412/2512 24010KT 9999 SCT013 
     TEMPO 2412/2414 BKN013 
     TEMPO 2414/2420 TS BKN013 FEW025CB
       
DIAP 241100Z 25008KT 220V280 9999 SCT012 32/25 Q1013 NOSIG
TAF DIAP 241100Z 2412/2518 24010KT 9999 SCT012 
     PROB30 
     TEMPO 2416/2422 TS BKN012 FEW020CB 
     TEMPO 2515/2518 TS BKN012 FEW020CB
       
TAF DIYO 240500Z 2406/2506 24004KT 8000 FEW015 
     PROB30 2406/2408 2000 BR 
     PROB30 
     TEMPO 2412/2418 BKN015